createdAt,value
2019-01-02T00:02:11.167Z,101471.58
2019-01-02T00:04:44.565Z,101480.92
2019-01-02T00:07:16.636Z,101491.45
2019-01-02T00:09:47.810Z,101483.89
2019-01-02T00:12:20.329Z,101468.92
2019-01-02T00:14:51.619Z,101470.47
2019-01-02T00:17:22.823Z,101473.73
2019-01-02T00:19:54.447Z,101474.62
2019-01-02T00:22:25.668Z,101485.27
2019-01-02T00:24:56.870Z,101478.77
2019-01-02T00:27:28.064Z,101471.37
2019-01-02T00:29:59.200Z,101465.01
2019-01-02T00:32:30.366Z,101488.03
2019-01-02T00:35:01.559Z,101487.62
2019-01-02T00:37:32.723Z,101490.77
2019-01-02T00:40:04.315Z,101492.06
2019-01-02T00:42:35.881Z,101501.16
2019-01-02T00:45:08.140Z,101513.91
2019-01-02T00:47:39.727Z,101515.34
2019-01-02T00:50:12.163Z,101521.84
2019-01-02T00:52:43.359Z,101532.00
2019-01-02T00:55:14.647Z,101529.91
2019-01-02T00:57:45.839Z,101531.34
2019-01-02T01:00:20.517Z,101541.74
2019-01-02T01:02:51.992Z,101547.24
2019-01-02T01:05:24.283Z,101532.52
2019-01-02T01:07:55.458Z,101528.63
2019-01-02T01:10:26.642Z,101529.67
2019-01-02T01:12:57.911Z,101537.64
2019-01-02T01:15:29.175Z,101540.75
2019-01-02T01:18:00.342Z,101548.69
2019-01-02T01:20:31.574Z,101553.64
2019-01-02T01:23:02.685Z,101536.99
2019-01-02T01:25:34.391Z,101547.15
2019-01-02T01:28:05.586Z,101554.70
2019-01-02T01:30:36.829Z,101558.23
2019-01-02T01:33:08.393Z,101555.37
2019-01-02T01:35:39.828Z,101568.52
2019-01-02T01:38:11.019Z,101570.73
2019-01-02T01:40:42.664Z,101558.23
2019-01-02T01:43:15.070Z,101569.02
2019-01-02T01:45:46.283Z,101563.45
2019-01-02T01:48:17.468Z,101573.84
2019-01-02T01:50:48.654Z,101579.59
2019-01-02T01:53:20.273Z,101579.59
2019-01-02T01:55:51.508Z,101581.78
2019-01-02T01:58:22.650Z,101591.05
2019-01-02T02:00:54.021Z,101592.36
2019-01-02T02:03:25.202Z,101595.47
2019-01-02T02:05:56.409Z,101591.56
2019-01-02T02:08:28.064Z,101593.37
2019-01-02T02:10:59.307Z,101598.33
2019-01-02T02:13:30.611Z,101603.02
2019-01-02T02:16:01.754Z,101614.36
2019-01-02T02:18:32.999Z,101603.95
2019-01-02T02:21:04.474Z,101617.09
2019-01-02T02:23:35.745Z,101615.24
2019-01-02T02:26:06.985Z,101617.09
2019-01-02T02:28:38.602Z,101615.66
2019-01-02T02:31:10.279Z,101615.11
2019-01-02T02:33:41.873Z,101618.09
2019-01-02T02:36:13.478Z,101627.61
2019-01-02T02:38:44.983Z,101621.99
2019-01-02T02:41:16.267Z,101620.56
2019-01-02T02:43:48.021Z,101622.41
2019-01-02T02:46:19.235Z,101628.50
2019-01-02T02:48:50.415Z,101640.63
2019-01-02T02:51:22.015Z,101630.59
2019-01-02T02:53:53.632Z,101642.67
2019-01-02T02:56:25.190Z,101639.70
2019-01-02T02:58:56.669Z,101637.89
2019-01-02T03:01:28.345Z,101641.00
2019-01-02T03:03:59.901Z,101642.30
2019-01-02T03:06:31.487Z,101642.30
2019-01-02T03:09:03.118Z,101638.91
2019-01-02T03:11:35.680Z,101645.58
2019-01-02T03:14:06.909Z,101641.00
2019-01-02T03:16:38.941Z,101643.98
2019-01-02T03:19:10.624Z,101654.80
2019-01-02T03:21:42.207Z,101660.00
2019-01-02T03:24:13.736Z,101657.40
2019-01-02T03:26:45.009Z,101665.20
2019-01-02T03:29:16.329Z,101662.98
2019-01-02T03:31:47.844Z,101673.25
2019-01-02T03:34:19.425Z,101668.05
2019-01-02T03:36:50.965Z,101669.86
2019-01-02T03:39:23.227Z,101662.05
2019-01-02T03:41:54.639Z,101660.00
2019-01-02T03:44:25.825Z,101671.70
2019-01-02T03:46:57.006Z,101674.82
2019-01-02T03:49:28.315Z,101682.12
2019-01-02T03:51:59.464Z,101669.86
2019-01-02T03:54:30.690Z,101671.95
2019-01-02T03:57:01.966Z,101688.08
2019-01-02T03:59:33.335Z,101688.86
2019-01-02T04:02:04.609Z,101682.61
2019-01-02T04:04:35.910Z,101687.27
2019-01-02T04:07:07.139Z,101682.98
2019-01-02T04:09:38.310Z,101691.16
2019-01-02T04:12:09.486Z,101685.15
2019-01-02T04:14:40.690Z,101695.06
2019-01-02T04:17:11.884Z,101684.02
2019-01-02T04:19:43.056Z,101684.91
2019-01-02T04:22:14.252Z,101678.40
2019-01-02T04:24:45.489Z,101694.94
2019-01-02T04:27:16.679Z,101696.37
2019-01-02T04:29:47.907Z,101684.16
2019-01-02T04:32:19.158Z,101698.46
2019-01-02T04:34:50.444Z,101697.16
2019-01-02T04:37:21.594Z,101700.92
2019-01-02T04:39:52.896Z,101708.86
2019-01-02T04:42:24.100Z,101722.25
2019-01-02T04:44:55.344Z,101734.75
2019-01-02T04:47:26.491Z,101726.16
2019-01-02T04:49:57.793Z,101723.41
2019-01-02T04:52:29.030Z,101728.62
2019-01-02T04:55:00.216Z,101722.22
2019-01-02T04:57:31.493Z,101739.02
2019-01-02T05:00:02.638Z,101730.67
2019-01-02T05:02:34.960Z,101732.52
2019-01-02T05:05:06.427Z,101731.57
2019-01-02T05:07:37.721Z,101731.57
2019-01-02T05:10:10.431Z,101748.88
2019-01-02T05:12:41.663Z,101753.06
2019-01-02T05:15:12.909Z,101744.33
2019-01-02T05:17:44.042Z,101751.22
2019-01-02T05:20:16.400Z,101744.20
2019-01-02T05:22:47.639Z,101751.08
2019-01-02T05:25:18.852Z,101753.30
2019-01-02T05:27:50.120Z,101757.95
2019-01-02T05:30:21.261Z,101771.89
2019-01-02T05:32:52.498Z,101763.95
2019-01-02T05:35:23.611Z,101766.69
2019-01-02T05:37:54.837Z,101761.34
2019-01-02T05:40:26.512Z,101771.75
2019-01-02T05:42:57.708Z,101789.83
2019-01-02T05:45:28.914Z,101793.73
2019-01-02T05:48:00.064Z,101793.31
2019-01-02T05:50:31.285Z,101795.91
2019-01-02T05:53:02.473Z,101802.28
2019-01-02T05:55:33.598Z,101804.88
2019-01-02T05:58:04.820Z,101810.46
2019-01-02T06:00:39.771Z,101799.55
2019-01-02T06:03:08.879Z,101819.84
2019-01-02T06:05:40.047Z,101830.63
2019-01-02T06:08:11.341Z,101830.07
2019-01-02T06:10:42.488Z,101854.27
2019-01-02T06:13:13.692Z,101842.80
2019-01-02T06:15:44.921Z,101851.53
2019-01-02T06:18:16.189Z,101863.09
2019-01-02T06:20:47.387Z,101863.09
2019-01-02T06:23:18.589Z,101859.25
2019-01-02T06:25:50.982Z,101859.25
2019-01-02T06:28:22.251Z,101863.94
2019-01-02T06:30:53.522Z,101855.86
2019-01-02T06:33:24.786Z,101873.52
2019-01-02T06:35:56.038Z,101868.55
2019-01-02T06:38:27.260Z,101873.38
2019-01-02T06:40:58.463Z,101868.64
2019-01-02T06:43:29.646Z,101870.08
2019-01-02T06:46:00.905Z,101875.55
2019-01-02T06:48:32.166Z,101879.45
2019-01-02T06:51:03.372Z,101881.50
2019-01-02T06:53:34.617Z,101894.73
2019-01-02T06:56:05.976Z,101885.27
2019-01-02T06:58:37.167Z,101891.63
2019-01-02T07:01:08.613Z,101897.72
2019-01-02T07:03:39.900Z,101892.38
2019-01-02T07:06:11.028Z,101890.94
2019-01-02T07:08:42.372Z,101894.97
2019-01-02T07:11:13.537Z,101891.86
2019-01-02T07:13:44.715Z,101904.72
2019-01-02T07:16:16.116Z,101917.72
2019-01-02T07:18:47.277Z,101927.19
2019-01-02T07:21:18.547Z,101939.41
2019-01-02T07:23:49.809Z,101944.46
2019-01-02T07:26:21.034Z,101929.42
2019-01-02T07:28:52.195Z,101947.20
2019-01-02T07:31:23.411Z,101934.84
2019-01-02T07:34:10.744Z,101934.84
2019-01-02T07:37:19.192Z,101944.88
2019-01-02T07:40:18.427Z,101945.25
2019-01-02T07:43:29.670Z,101963.82
2019-01-02T07:46:35.159Z,101968.50
2019-01-02T07:49:27.456Z,101973.94
2019-01-02T07:52:24.573Z,101979.51
2019-01-02T07:55:36.021Z,101984.56
2019-01-02T07:58:39.679Z,101990.28
2019-01-02T08:01:47.023Z,101979.13
2019-01-02T08:05:06.428Z,101995.25
2019-01-02T08:08:12.102Z,102002.13
2019-01-02T08:11:12.496Z,102017.34
2019-01-02T08:15:03.014Z,102017.34
2019-01-02T08:18:07.062Z,102022.17
2019-01-02T08:21:40.501Z,102040.52
2019-01-02T08:24:33.493Z,102044.19
2019-01-02T08:27:50.840Z,102046.00
2019-01-02T08:31:10.985Z,102043.41
2019-01-02T08:34:19.376Z,102067.22
2019-01-02T08:37:39.502Z,102067.36
2019-01-02T08:40:40.113Z,102072.33
2019-01-02T08:43:30.376Z,102077.59
2019-01-02T08:46:43.907Z,102077.59
2019-01-02T08:49:51.818Z,102075.92
2019-01-02T08:53:00.047Z,102088.05
2019-01-02T08:56:03.249Z,102091.95
2019-01-02T08:59:08.408Z,102083.64
2019-01-02T09:02:25.648Z,102099.84
2019-01-02T09:05:41.124Z,102120.81
2019-01-02T09:08:56.333Z,102120.81
2019-01-02T09:12:05.300Z,102122.04
2019-01-02T09:15:29.816Z,102133.04
2019-01-02T09:18:42.241Z,102144.22
2019-01-02T09:21:50.920Z,102144.44
2019-01-02T09:24:55.674Z,102147.41
2019-01-02T09:28:11.612Z,102156.52
2019-01-02T09:31:08.690Z,102151.31
2019-01-02T09:34:19.139Z,102163.16
2019-01-02T09:37:27.625Z,102161.27
2019-01-02T09:40:45.668Z,102169.36
2019-01-02T09:44:05.190Z,102174.19
2019-01-02T09:47:29.676Z,102181.91
2019-01-02T09:50:25.611Z,102184.66
2019-01-02T09:53:20.274Z,102189.78
2019-01-02T09:56:38.701Z,102187.10
2019-01-02T10:00:07.441Z,102186.66
2019-01-02T10:03:14.446Z,102195.45
2019-01-02T10:06:23.924Z,102192.70
2019-01-02T10:09:26.416Z,102182.39
2019-01-02T10:12:38.765Z,102202.48
2019-01-02T10:15:39.681Z,102201.25
2019-01-02T10:18:47.948Z,102202.65
2019-01-02T10:22:03.887Z,102209.59
2019-01-02T10:25:19.802Z,102213.04
2019-01-02T10:28:37.162Z,102211.51
2019-01-02T10:31:48.920Z,102222.99
2019-01-02T10:34:54.541Z,102209.52
2019-01-02T10:38:01.564Z,102226.21
2019-01-02T10:41:04.500Z,102222.22
2019-01-02T10:44:31.884Z,102225.48
2019-01-02T10:47:39.927Z,102236.75
2019-01-02T10:50:32.778Z,102240.56
2019-01-02T10:53:33.955Z,102241.03
2019-01-02T10:56:25.287Z,102254.34
2019-01-02T10:59:35.664Z,102251.14
2019-01-02T11:02:33.404Z,102259.47
2019-01-02T11:05:53.117Z,102259.09
2019-01-02T11:08:42.951Z,102272.11
2019-01-02T11:11:54.446Z,102269.88
2019-01-02T11:15:14.877Z,102272.11
2019-01-02T11:18:41.047Z,102281.60
2019-01-02T11:21:52.225Z,102287.18
2019-01-02T11:25:10.558Z,102284.35
2019-01-02T11:28:20.133Z,102288.95
2019-01-02T11:31:31.102Z,102281.20
2019-01-02T11:34:39.603Z,102288.70
2019-01-02T11:37:40.348Z,102279.88
2019-01-02T11:40:58.749Z,102286.70
2019-01-02T11:44:32.618Z,102294.30
2019-01-02T11:47:03.902Z,102293.66
2019-01-02T11:49:35.206Z,102301.09
2019-01-02T11:52:06.384Z,102298.63
2019-01-02T11:54:37.782Z,102292.49
2019-01-02T11:57:09.085Z,102291.74
2019-01-02T11:59:40.288Z,102291.10
2019-01-02T12:02:11.512Z,102306.50
2019-01-02T12:04:42.738Z,102297.02
2019-01-02T12:07:13.864Z,102303.29
2019-01-02T12:09:45.058Z,102307.34
2019-01-02T12:12:16.254Z,102308.04
2019-01-02T12:14:47.473Z,102302.59
2019-01-02T12:17:18.879Z,102312.93
2019-01-02T12:19:50.023Z,102307.86
2019-01-02T12:22:21.222Z,102313.59
2019-01-02T12:24:52.473Z,102305.77
2019-01-02T12:27:23.683Z,102313.22
2019-01-02T12:29:55.083Z,102321.73
2019-01-02T12:32:26.260Z,102312.61
2019-01-02T12:34:57.453Z,102321.87
2019-01-02T12:37:28.719Z,102321.73
2019-01-02T12:40:00.175Z,102320.02
2019-01-02T12:42:31.621Z,102317.59
2019-01-02T12:45:03.083Z,102329.09
2019-01-02T12:47:34.517Z,102325.17
2019-01-02T12:50:07.778Z,102333.66
2019-01-02T12:52:39.554Z,102324.91
2019-01-02T12:55:11.052Z,102340.96
2019-01-02T12:57:42.405Z,102342.78
2019-01-02T13:00:14.818Z,102333.28
2019-01-02T13:03:15.569Z,102336.41
2019-01-02T13:06:17.920Z,102336.17
2019-01-02T13:09:29.379Z,102336.23
2019-01-02T13:12:43.523Z,102347.50
2019-01-02T13:15:51.339Z,102351.03
2019-01-02T13:18:50.587Z,102370.95
2019-01-02T13:22:06.146Z,102389.84
2019-01-02T13:25:01.935Z,102430.95
2019-01-02T13:28:04.609Z,102428.22
2019-01-02T13:31:38.197Z,102429.66
2019-01-02T13:35:08.677Z,102403.00
2019-01-02T13:37:53.102Z,102410.03
2019-01-02T13:41:07.235Z,102406.34
2019-01-02T13:43:53.266Z,102419.51
2019-01-02T13:46:38.172Z,102414.59
2019-01-02T13:49:40.871Z,102414.45
2019-01-02T13:52:12.055Z,102420.16
2019-01-02T13:54:43.276Z,102433.68
2019-01-02T13:57:14.478Z,102433.75
2019-01-02T13:59:45.671Z,102444.89
2019-01-02T14:02:16.877Z,102449.51
2019-01-02T14:04:48.115Z,102436.87
2019-01-02T14:07:19.490Z,102433.46
2019-01-02T14:09:50.802Z,102438.04
2019-01-02T14:12:21.975Z,102444.10
2019-01-02T14:14:54.256Z,102445.97
2019-01-02T14:17:25.472Z,102443.36
2019-01-02T14:19:56.683Z,102442.21
2019-01-02T14:22:27.885Z,102442.89
2019-01-02T14:24:59.177Z,102448.80
2019-01-02T14:27:30.429Z,102442.85
2019-01-02T14:30:01.649Z,102436.34
2019-01-02T14:32:32.872Z,102444.67
2019-01-02T14:35:04.154Z,102457.09
2019-01-02T14:37:35.447Z,102459.30
2019-01-02T14:40:06.832Z,102464.84
2019-01-02T14:42:38.033Z,102463.13
2019-01-02T14:45:09.290Z,102474.69
2019-01-02T14:47:40.376Z,102474.54
2019-01-02T14:50:11.633Z,102473.83
2019-01-02T14:52:43.331Z,102485.02
2019-01-02T14:55:15.701Z,102472.23
2019-01-02T14:57:46.977Z,102484.00
2019-01-02T15:00:18.239Z,102481.84
2019-01-02T15:02:49.471Z,102497.89
2019-01-02T15:05:20.710Z,102493.53
2019-01-02T15:07:51.984Z,102506.23
2019-01-02T15:10:23.120Z,102506.29
2019-01-02T15:12:54.395Z,102512.82
2019-01-02T15:15:26.547Z,102518.27
2019-01-02T15:17:57.797Z,102529.64
2019-01-02T15:20:28.971Z,102530.63
2019-01-02T15:23:00.142Z,102529.17
2019-01-02T15:25:31.321Z,102529.39
2019-01-02T15:28:02.548Z,102533.56
2019-01-02T15:30:33.702Z,102542.45
2019-01-02T15:33:04.863Z,102546.56
2019-01-02T15:35:36.060Z,102542.88
2019-01-02T15:38:07.195Z,102552.56
2019-01-02T15:40:38.399Z,102543.57
2019-01-02T15:43:09.607Z,102542.33
2019-01-02T15:45:40.867Z,102559.02
2019-01-02T15:48:12.049Z,102556.95
2019-01-02T15:50:43.260Z,102565.26
2019-01-02T15:53:14.425Z,102563.77
2019-01-02T15:55:45.609Z,102572.18
2019-01-02T15:58:16.979Z,102573.32
2019-01-02T16:00:48.183Z,102575.20
2019-01-02T16:03:19.367Z,102583.98
2019-01-02T16:05:50.683Z,102579.89
2019-01-02T16:08:22.014Z,102579.89
2019-01-02T16:10:53.260Z,102579.56
2019-01-02T16:13:24.421Z,102593.81
2019-01-02T16:15:55.632Z,102587.93
2019-01-02T16:18:26.865Z,102603.84
2019-01-02T16:20:58.091Z,102600.16
2019-01-02T16:23:29.392Z,102606.28
2019-01-02T16:26:00.700Z,102611.53
2019-01-02T16:28:31.969Z,102611.53
2019-01-02T16:31:04.086Z,102616.94
2019-01-02T16:33:35.594Z,102620.48
2019-01-02T16:36:06.986Z,102620.48
2019-01-02T16:38:38.169Z,102629.53
2019-01-02T16:41:09.452Z,102647.20
2019-01-02T16:43:40.768Z,102647.20
2019-01-02T16:46:11.924Z,102648.34
2019-01-02T16:48:43.073Z,102650.57
2019-01-02T16:51:14.259Z,102658.90
2019-01-02T16:53:45.511Z,102659.47
2019-01-02T16:56:16.695Z,102659.47
2019-01-02T16:58:48.916Z,102664.14
2019-01-02T17:01:20.063Z,102671.62
2019-01-02T17:03:51.308Z,102685.55
2019-01-02T17:06:22.491Z,102685.55
2019-01-02T17:08:53.751Z,102683.35
2019-01-02T17:11:26.080Z,102685.22
2019-01-02T17:13:57.439Z,102688.75
2019-01-02T17:16:28.716Z,102697.28
2019-01-02T17:19:00.023Z,102688.80
2019-01-02T17:21:31.240Z,102696.34
2019-01-02T17:24:02.583Z,102696.34
2019-01-02T17:26:34.786Z,102699.84
2019-01-02T17:29:05.963Z,102693.43
2019-01-02T17:31:37.170Z,102693.43
2019-01-02T17:34:08.350Z,102713.65
2019-01-02T17:36:39.572Z,102712.92
2019-01-02T17:39:10.687Z,102722.05
2019-01-02T17:41:42.103Z,102714.83
2019-01-02T17:44:13.302Z,102720.79
2019-01-02T17:46:44.569Z,102722.30
2019-01-02T17:49:15.679Z,102723.06
2019-01-02T17:51:46.868Z,102728.06
2019-01-02T17:54:17.958Z,102728.06
2019-01-02T17:56:49.300Z,102730.66
2019-01-02T17:59:20.506Z,102730.66
2019-01-02T18:01:51.621Z,102740.88
2019-01-02T18:04:22.911Z,102740.88
2019-01-02T18:06:54.131Z,102742.18
2019-01-02T18:09:25.418Z,102731.13
2019-01-02T18:11:56.675Z,102746.08
2019-01-02T18:14:27.866Z,102746.08
2019-01-02T18:16:59.098Z,102752.41
2019-01-02T18:19:30.299Z,102751.11
2019-01-02T18:22:01.503Z,102751.11
2019-01-02T18:24:32.691Z,102754.48
2019-01-02T18:27:03.866Z,102755.04
2019-01-02T18:29:35.175Z,102764.70
2019-01-02T18:32:06.372Z,102764.70
2019-01-02T18:34:37.995Z,102763.27
2019-01-02T18:37:09.146Z,102763.27
2019-01-02T18:39:40.747Z,102765.17
2019-01-02T18:42:12.160Z,102760.17
2019-01-02T18:44:43.371Z,102773.52
2019-01-02T18:47:14.642Z,102774.46
2019-01-02T18:49:45.821Z,102774.46
2019-01-02T18:52:18.222Z,102768.70
2019-01-02T18:54:49.413Z,102785.58
2019-01-02T18:57:20.611Z,102788.57
2019-01-02T18:59:51.842Z,102788.57
2019-01-02T19:02:23.088Z,102784.20
2019-01-02T19:04:54.353Z,102797.19
2019-01-02T19:07:25.634Z,102797.19
2019-01-02T19:09:56.932Z,102794.22
2019-01-02T19:12:28.297Z,102799.25
2019-01-02T19:14:59.794Z,102804.83
2019-01-02T19:17:31.101Z,102800.59
2019-01-02T19:20:02.591Z,102800.59
2019-01-02T19:22:34.155Z,102795.97
2019-01-02T19:25:05.380Z,102803.95
2019-01-02T19:27:36.609Z,102803.95
2019-01-02T19:30:09.038Z,102808.41
2019-01-02T19:32:40.287Z,102810.67
2019-01-02T19:35:11.568Z,102814.19
2019-01-02T19:37:44.165Z,102809.19
2019-01-02T19:40:16.116Z,102812.02
2019-01-02T19:42:48.570Z,102826.68
2019-01-02T19:45:20.055Z,102826.68
2019-01-02T19:47:51.284Z,102830.19
2019-01-02T19:50:22.760Z,102819.28
2019-01-02T19:52:54.797Z,102826.49
2019-01-02T19:55:26.153Z,102826.34
2019-01-02T19:57:57.359Z,102820.66
2019-01-02T20:00:28.499Z,102828.05
2019-01-02T20:02:59.641Z,102831.77
2019-01-02T20:05:30.854Z,102823.06
2019-01-02T20:08:01.979Z,102832.15
2019-01-02T20:10:33.238Z,102831.25
2019-01-02T20:13:04.571Z,102831.08
2019-01-02T20:15:35.821Z,102837.76
2019-01-02T20:18:07.029Z,102842.55
2019-01-02T20:20:38.249Z,102841.08
2019-01-02T20:23:09.509Z,102842.56
2019-01-02T20:25:40.801Z,102838.86
2019-01-02T20:28:13.207Z,102841.09
2019-01-02T20:30:45.618Z,102837.56
2019-01-02T20:33:17.967Z,102835.16
2019-01-02T20:35:50.267Z,102836.11
2019-01-02T20:38:21.748Z,102840.19
2019-01-02T20:40:53.257Z,102838.19
2019-01-02T20:43:24.546Z,102838.19
2019-01-02T20:45:56.025Z,102843.16
2019-01-02T20:48:27.314Z,102842.81
2019-01-02T20:50:58.914Z,102841.17
2019-01-02T20:53:30.174Z,102846.55
2019-01-02T20:56:01.504Z,102839.13
2019-01-02T20:58:32.853Z,102835.60
2019-01-02T21:01:04.342Z,102837.66
2019-01-02T21:03:35.611Z,102841.55
2019-01-02T21:06:07.388Z,102839.14
2019-01-02T21:08:38.747Z,102842.09
2019-01-02T21:11:10.066Z,102834.73
2019-01-02T21:13:41.518Z,102833.80
2019-01-02T21:16:12.764Z,102835.28
2019-01-02T21:18:45.017Z,102833.41
2019-01-02T21:21:17.311Z,102832.88
2019-01-02T21:23:48.552Z,102836.23
2019-01-02T21:26:19.745Z,102840.12
2019-01-02T21:28:51.014Z,102842.33
2019-01-02T21:31:23.377Z,102843.09
2019-01-02T21:33:54.549Z,102847.70
2019-01-02T21:36:25.828Z,102847.88
2019-01-02T21:38:58.011Z,102850.70
2019-01-02T21:41:29.219Z,102849.77
2019-01-02T21:44:00.839Z,102847.00
2019-01-02T21:46:32.266Z,102842.89
2019-01-02T21:49:03.508Z,102851.97
2019-01-02T21:51:34.824Z,102847.36
2019-01-02T21:54:06.073Z,102846.59
2019-01-02T21:56:37.244Z,102846.06
2019-01-02T21:59:08.535Z,102843.66
2019-01-02T22:01:39.783Z,102856.80
2019-01-02T22:04:11.068Z,102848.48
2019-01-02T22:06:42.340Z,102847.55
2019-01-02T22:09:13.522Z,102839.42
2019-01-02T22:11:44.707Z,102845.91
2019-01-02T22:14:15.924Z,102841.27
2019-01-02T22:16:47.109Z,102847.75
2019-01-02T22:19:18.424Z,102838.09
2019-01-02T22:21:49.638Z,102843.86
2019-01-02T22:24:20.863Z,102843.69
2019-01-02T22:26:52.070Z,102839.22
2019-01-02T22:29:23.353Z,102834.44
2019-01-02T22:31:54.500Z,102839.63
2019-01-02T22:34:25.800Z,102838.33
2019-01-02T22:36:57.028Z,102840.92
2019-01-02T22:39:28.331Z,102842.22
2019-01-02T22:41:59.517Z,102853.48
2019-01-02T22:44:30.740Z,102841.82
2019-01-02T22:47:02.016Z,102848.70
2019-01-02T22:49:33.187Z,102850.89
2019-01-02T22:52:04.404Z,102852.00
2019-01-02T22:54:35.666Z,102851.64
2019-01-02T22:57:06.964Z,102857.55
2019-01-02T22:59:38.276Z,102857.55
2019-01-02T23:02:15.411Z,102859.95
2019-01-02T23:05:16.935Z,102856.83
2019-01-02T23:08:19.222Z,102858.84
2019-01-02T23:11:10.272Z,102869.22
2019-01-02T23:14:08.799Z,102876.45
2019-01-02T23:16:58.046Z,102879.59
2019-01-02T23:19:54.970Z,102877.00
2019-01-02T23:22:45.121Z,102884.95
2019-01-02T23:25:34.008Z,102896.62
2019-01-02T23:28:22.948Z,102894.03
2019-01-02T23:31:31.279Z,102896.27
2019-01-02T23:34:21.546Z,102903.11
2019-01-02T23:37:11.685Z,102908.11
2019-01-02T23:40:00.753Z,102911.42
2019-01-02T23:42:59.854Z,102911.23
2019-01-02T23:45:52.828Z,102910.52
2019-01-02T23:48:36.102Z,102918.83
2019-01-02T23:51:38.641Z,102915.88
2019-01-02T23:54:27.576Z,102924.77
2019-01-02T23:57:26.877Z,102918.47
